Overview Statistics Trail Chart Weather Telemetry Raw packets
 

This is the latest recevied weather packets stored in our database for station/object DJ2KUA-6. If no packets are shown the sender has not sent any weather packets the latest 10 day(s).

<< 14 15 16 17 18 19 20 >>
Time Temp. Humidity Pressure Rain* Wind** Luminosity Snow
1788162332 20.56° C 77% 1069 hPa 0 mm - - -
1788161193 20° C 80% 1069 hPa 0 mm - - -
1788160056 18.89° C 84% 1068 hPa 0 mm - - -
1788157775 18.33° C 86% 1068 hPa 0 mm - - -
1788156633 18.33° C 86% 1068 hPa 0 mm - - -
1788155497 18.33° C 86% 1068 hPa 0 mm - - -
1788154353 17.78° C 86% 1068 hPa 0 mm - - -
1788153213 17.78° C 86% 1068 hPa 0 mm - - -
1788152075 17.78° C 86% 1068 hPa 0 mm - - -
1788150933 18.33° C 86% 1068 hPa 0 mm - - -
1788149793 17.78° C 86% 1068 hPa 0 mm - - -
1788148652 17.78° C 86% 1068 hPa 0 mm - - -
1788146374 17.78° C 86% 1067 hPa 1.02 mm - - -
1788145235 17.78° C 86% 1067 hPa 1.02 mm - - -
1788144094 18.33° C 86% 1067 hPa 1.02 mm - - -
1788141815 18.33° C 86% 1067 hPa 0 mm - - -
1788140674 18.33° C 86% 1066 hPa 0 mm - - -
1788139533 18.33° C 86% 1066 hPa 0 mm - - -
1788138395 18.33° C 85% 1066 hPa 0 mm - - -
1788137253 18.33° C 85% 1066 hPa 0.51 mm - - -
1788136116 18.33° C 85% 1066 hPa 1.02 mm - - -
1788134973 18.33° C 85% 1066 hPa 1.02 mm - - -
1788133871 18.33° C 84% 1066 hPa 0.51 mm - - -
1788133835 18.33° C 84% 1066 hPa 0.51 mm - - -
1788132693 19.44° C 80% 1066 hPa 0 mm - - -

* Rain latest hour (hover to see other rain measurements)
** Current wind speed in m/s (hover to see current wind gust speed)